KLM1756 EDDH-EHAM
Flight info
| Callsign | KLM1756 |
|---|---|
| Flight time | 0h 51m |
| Altitude | 30000 |
| Route | WSN5C WSN DCT ITMIZ DCT BLUFA |
| Aircraft | B38M/M-SDE1FGHILORVWXY/HB1 |
Departure
| Time | 2026-05-06 13:55 |
|---|---|
| Airport | Hamburg Helmut Schmidt Airport (EDDH) |
Arrival
| Time | 2026-05-06 14:46 |
|---|---|
| Airport | Amsterdam Airport Schiphol (EHAM) |
| Time | Latitude | Longitude | Altitude | Speed | Heading |
|---|---|---|---|---|---|
| 2026-05-06 13:20 | 53.62805 | 9.99081 | 43 ft | 0 kts | 61° |
| 2026-05-06 13:43 | 53.62803 | 9.99072 | 44 ft | 4 kts | 61° |
| 2026-05-06 13:44 | 53.62784 | 9.98997 | 43 ft | 10 kts | 88° |
| 2026-05-06 13:44 | 53.62790 | 9.98946 | 41 ft | 0 kts | 143° |
| 2026-05-06 13:45 | 53.62788 | 9.98949 | 41 ft | 3 kts | 143° |
| 2026-05-06 13:45 | 53.62725 | 9.99023 | 45 ft | 16 kts | 149° |
| 2026-05-06 13:46 | 53.62624 | 9.99113 | 45 ft | 13 kts | 156° |
| 2026-05-06 13:46 | 53.62609 | 9.99124 | 45 ft | 0 kts | 156° |
| 2026-05-06 13:46 | 53.62574 | 9.99116 | 45 ft | 12 kts | 219° |
| 2026-05-06 13:47 | 53.62538 | 9.98944 | 45 ft | 14 kts | 261° |
| 2026-05-06 13:47 | 53.62528 | 9.98790 | 44 ft | 12 kts | 262° |
| 2026-05-06 13:47 | 53.62515 | 9.98660 | 44 ft | 10 kts | 259° |
| 2026-05-06 13:47 | 53.62502 | 9.98553 | 43 ft | 9 kts | 258° |
| 2026-05-06 13:48 | 53.62491 | 9.98462 | 43 ft | 7 kts | 259° |
| 2026-05-06 13:48 | 53.62482 | 9.98385 | 43 ft | 7 kts | 259° |
| 2026-05-06 13:48 | 53.62471 | 9.98290 | 43 ft | 9 kts | 259° |
| 2026-05-06 13:48 | 53.62456 | 9.98178 | 43 ft | 9 kts | 248° |
| 2026-05-06 13:49 | 53.62423 | 9.98089 | 41 ft | 6 kts | 227° |
| 2026-05-06 13:49 | 53.62395 | 9.98027 | 42 ft | 10 kts | 230° |
| 2026-05-06 13:49 | 53.62332 | 9.97897 | 42 ft | 19 kts | 231° |
| 2026-05-06 13:49 | 53.62232 | 9.97690 | 41 ft | 27 kts | 230° |
| 2026-05-06 13:50 | 53.62107 | 9.97432 | 41 ft | 30 kts | 229° |
| 2026-05-06 13:50 | 53.61975 | 9.97170 | 40 ft | 29 kts | 230° |
| 2026-05-06 13:50 | 53.61845 | 9.96910 | 40 ft | 29 kts | 230° |
| 2026-05-06 13:50 | 53.61721 | 9.96654 | 39 ft | 26 kts | 229° |
| 2026-05-06 13:51 | 53.61682 | 9.96450 | 38 ft | 15 kts | 303° |
| 2026-05-06 13:51 | 53.61714 | 9.96418 | 39 ft | 0 kts | 356° |
| 2026-05-06 13:52 | 53.61715 | 9.96418 | 39 ft | 2 kts | 356° |
| 2026-05-06 13:53 | 53.61757 | 9.96420 | 40 ft | 10 kts | 4° |
| 2026-05-06 13:53 | 53.61858 | 9.96457 | 40 ft | 22 kts | 32° |
| 2026-05-06 13:53 | 53.61904 | 9.96530 | 41 ft | 0 kts | 49° |
| 2026-05-06 13:54 | 53.61913 | 9.96547 | 39 ft | 10 kts | 50° |
| 2026-05-06 13:54 | 53.62021 | 9.96769 | 40 ft | 41 kts | 50° |
| 2026-05-06 13:54 | 53.62437 | 9.97619 | 90 ft | 140 kts | 51° |
| 2026-05-06 13:54 | 53.63201 | 9.99163 | 436 ft | 199 kts | 51° |
| 2026-05-06 13:55 | 53.64163 | 10.01427 | 703 ft | 265 kts | 50° |
| 2026-05-06 13:55 | 53.65326 | 10.03533 | 3153 ft | 222 kts | 48° |
| 2026-05-06 13:55 | 53.66300 | 10.05386 | 5104 ft | 219 kts | 51° |
| 2026-05-06 13:55 | 53.67359 | 10.07469 | 4994 ft | 234 kts | 42° |
| 2026-05-06 13:56 | 53.68813 | 10.08707 | 4967 ft | 247 kts | 18° |
| 2026-05-06 13:56 | 53.70521 | 10.08765 | 4911 ft | 247 kts | 351° |
| 2026-05-06 13:56 | 53.72084 | 10.07510 | 5107 ft | 256 kts | 322° |
| 2026-05-06 13:56 | 53.73181 | 10.05133 | 5949 ft | 255 kts | 299° |
| 2026-05-06 13:57 | 53.74005 | 10.02441 | 7284 ft | 259 kts | 298° |
| 2026-05-06 13:57 | 53.74794 | 9.99676 | 8531 ft | 263 kts | 290° |
| 2026-05-06 13:57 | 53.74966 | 9.96632 | 9726 ft | 269 kts | 262° |
| 2026-05-06 13:57 | 53.74373 | 9.93563 | 10547 ft | 284 kts | 247° |
| 2026-05-06 13:58 | 53.73546 | 9.90418 | 11189 ft | 302 kts | 244° |
| 2026-05-06 13:58 | 53.72656 | 9.87081 | 11727 ft | 321 kts | 245° |
| 2026-05-06 13:58 | 53.71760 | 9.83523 | 12305 ft | 336 kts | 245° |
| 2026-05-06 13:58 | 53.70839 | 9.79811 | 12656 ft | 349 kts | 245° |
| 2026-05-06 13:59 | 53.69894 | 9.76078 | 12528 ft | 341 kts | 244° |
| 2026-05-06 13:59 | 53.68959 | 9.72437 | 12505 ft | 342 kts | 244° |
| 2026-05-06 13:59 | 53.68012 | 9.68731 | 12504 ft | 343 kts | 244° |
| 2026-05-06 13:59 | 53.67071 | 9.65035 | 12508 ft | 344 kts | 245° |
| 2026-05-06 14:00 | 53.66122 | 9.61316 | 13014 ft | 345 kts | 245° |
| 2026-05-06 14:00 | 53.65102 | 9.57628 | 13943 ft | 347 kts | 236° |
| 2026-05-06 14:00 | 53.63734 | 9.54262 | 14789 ft | 349 kts | 231° |
| 2026-05-06 14:00 | 53.62277 | 9.50958 | 15661 ft | 352 kts | 231° |
| 2026-05-06 14:01 | 53.60835 | 9.47670 | 16504 ft | 355 kts | 232° |
| 2026-05-06 14:01 | 53.59389 | 9.44272 | 17378 ft | 358 kts | 233° |
| 2026-05-06 14:01 | 53.57934 | 9.40852 | 18229 ft | 361 kts | 233° |
| 2026-05-06 14:01 | 53.56450 | 9.37409 | 18932 ft | 364 kts | 232° |
| 2026-05-06 14:02 | 53.54945 | 9.33938 | 19633 ft | 369 kts | 232° |
| 2026-05-06 14:02 | 53.53425 | 9.30419 | 20292 ft | 373 kts | 233° |
| 2026-05-06 14:02 | 53.51894 | 9.26869 | 20975 ft | 377 kts | 233° |
| 2026-05-06 14:02 | 53.50340 | 9.23278 | 21658 ft | 381 kts | 233° |
| 2026-05-06 14:03 | 53.48788 | 9.19702 | 22337 ft | 385 kts | 233° |
| 2026-05-06 14:03 | 53.47202 | 9.16050 | 23026 ft | 389 kts | 233° |
| 2026-05-06 14:03 | 53.45598 | 9.12360 | 23689 ft | 393 kts | 233° |
| 2026-05-06 14:03 | 53.43977 | 9.08635 | 24287 ft | 396 kts | 233° |
| 2026-05-06 14:04 | 53.42335 | 9.04870 | 24861 ft | 400 kts | 233° |
| 2026-05-06 14:04 | 53.40701 | 9.01129 | 25421 ft | 403 kts | 233° |
| 2026-05-06 14:04 | 53.39032 | 8.97314 | 25985 ft | 407 kts | 232° |
| 2026-05-06 14:04 | 53.37343 | 8.93459 | 26523 ft | 412 kts | 232° |
| 2026-05-06 14:05 | 53.35643 | 8.89559 | 27076 ft | 415 kts | 234° |
| 2026-05-06 14:05 | 53.34298 | 8.85253 | 27615 ft | 421 kts | 249° |
| 2026-05-06 14:05 | 53.33359 | 8.80579 | 28146 ft | 425 kts | 251° |
| 2026-05-06 14:05 | 53.32461 | 8.75846 | 28663 ft | 428 kts | 251° |
| 2026-05-06 14:06 | 53.31563 | 8.71134 | 29074 ft | 433 kts | 251° |
| 2026-05-06 14:06 | 53.30608 | 8.66277 | 29255 ft | 442 kts | 250° |
| 2026-05-06 14:06 | 53.29641 | 8.61383 | 29720 ft | 443 kts | 250° |
| 2026-05-06 14:06 | 53.28700 | 8.56560 | 29868 ft | 426 kts | 251° |
| 2026-05-06 14:07 | 53.27805 | 8.51962 | 29868 ft | 406 kts | 250° |
| 2026-05-06 14:07 | 53.26941 | 8.47579 | 29866 ft | 390 kts | 250° |
| 2026-05-06 14:07 | 53.25253 | 8.39059 | 29867 ft | 386 kts | 250° |
| 2026-05-06 14:08 | 53.23573 | 8.30577 | 29869 ft | 382 kts | 250° |
| 2026-05-06 14:08 | 53.21906 | 8.22213 | 29869 ft | 381 kts | 250° |
| 2026-05-06 14:09 | 53.20223 | 8.13803 | 29874 ft | 379 kts | 250° |
| 2026-05-06 14:09 | 53.18551 | 8.05474 | 29870 ft | 378 kts | 250° |
| 2026-05-06 14:10 | 53.16884 | 7.97220 | 29866 ft | 377 kts | 250° |
| 2026-05-06 14:10 | 53.15202 | 7.88909 | 29869 ft | 377 kts | 249° |
| 2026-05-06 14:11 | 53.13520 | 7.80655 | 29869 ft | 378 kts | 250° |
| 2026-05-06 14:11 | 53.11825 | 7.72345 | 29874 ft | 377 kts | 250° |
| 2026-05-06 14:12 | 53.10136 | 7.64114 | 29874 ft | 377 kts | 249° |
| 2026-05-06 14:12 | 53.08526 | 7.55815 | 29883 ft | 376 kts | 250° |
| 2026-05-06 14:13 | 53.06897 | 7.47604 | 29892 ft | 375 kts | 250° |
| 2026-05-06 14:13 | 53.05261 | 7.39346 | 29653 ft | 376 kts | 250° |
| 2026-05-06 14:14 | 53.04437 | 7.35197 | 29177 ft | 379 kts | 250° |
| 2026-05-06 14:14 | 53.03604 | 7.31031 | 28686 ft | 380 kts | 251° |
| 2026-05-06 14:14 | 53.02765 | 7.26834 | 28207 ft | 382 kts | 250° |
| 2026-05-06 14:14 | 53.01921 | 7.22619 | 27735 ft | 385 kts | 251° |
| 2026-05-06 14:15 | 53.01083 | 7.18441 | 27319 ft | 386 kts | 250° |
| 2026-05-06 14:15 | 53.00227 | 7.14182 | 26916 ft | 387 kts | 250° |
| 2026-05-06 14:15 | 52.99368 | 7.09923 | 26594 ft | 387 kts | 250° |
| 2026-05-06 14:15 | 52.98533 | 7.05783 | 26600 ft | 380 kts | 250° |
| 2026-05-06 14:16 | 52.97691 | 7.01623 | 26597 ft | 379 kts | 250° |
| 2026-05-06 14:16 | 52.96849 | 6.97479 | 26600 ft | 379 kts | 250° |
| 2026-05-06 14:16 | 52.96007 | 6.93335 | 26601 ft | 379 kts | 250° |
| 2026-05-06 14:16 | 52.95161 | 6.89184 | 26603 ft | 379 kts | 251° |
| 2026-05-06 14:17 | 52.94316 | 6.85040 | 26602 ft | 378 kts | 250° |
| 2026-05-06 14:17 | 52.93482 | 6.80966 | 26603 ft | 377 kts | 250° |
| 2026-05-06 14:17 | 52.92637 | 6.76845 | 26603 ft | 377 kts | 250° |
| 2026-05-06 14:17 | 52.91791 | 6.72722 | 26602 ft | 377 kts | 249° |
| 2026-05-06 14:18 | 52.90953 | 6.68650 | 26606 ft | 376 kts | 250° |
| 2026-05-06 14:18 | 52.90104 | 6.64538 | 26604 ft | 376 kts | 250° |
| 2026-05-06 14:18 | 52.89256 | 6.60433 | 26603 ft | 376 kts | 250° |
| 2026-05-06 14:18 | 52.88694 | 6.57714 | 26604 ft | 376 kts | 249° |
| 2026-05-06 14:19 | 52.87568 | 6.52289 | 26596 ft | 374 kts | 249° |
| 2026-05-06 14:19 | 52.86722 | 6.48225 | 26596 ft | 374 kts | 249° |
| 2026-05-06 14:19 | 52.85873 | 6.44149 | 26592 ft | 374 kts | 249° |
| 2026-05-06 14:19 | 52.85310 | 6.41449 | 26593 ft | 373 kts | 249° |
| 2026-05-06 14:20 | 52.84169 | 6.35998 | 26085 ft | 381 kts | 249° |
| 2026-05-06 14:20 | 52.83496 | 6.33256 | 25695 ft | 380 kts | 241° |
| 2026-05-06 14:20 | 52.82088 | 6.29648 | 25149 ft | 371 kts | 234° |
| 2026-05-06 14:20 | 52.80663 | 6.26294 | 24669 ft | 347 kts | 234° |
| 2026-05-06 14:21 | 52.79271 | 6.23007 | 24220 ft | 351 kts | 235° |
| 2026-05-06 14:21 | 52.77870 | 6.19663 | 23759 ft | 354 kts | 235° |
| 2026-05-06 14:21 | 52.76479 | 6.16349 | 23270 ft | 347 kts | 235° |
| 2026-05-06 14:21 | 52.75105 | 6.13094 | 22802 ft | 349 kts | 235° |
| 2026-05-06 14:22 | 52.73719 | 6.09818 | 22325 ft | 345 kts | 235° |
| 2026-05-06 14:22 | 52.72345 | 6.06570 | 21877 ft | 345 kts | 235° |
| 2026-05-06 14:22 | 52.70976 | 6.03334 | 21428 ft | 338 kts | 235° |
| 2026-05-06 14:22 | 52.69619 | 6.00134 | 20988 ft | 341 kts | 235° |
| 2026-05-06 14:23 | 52.68304 | 5.97038 | 20545 ft | 329 kts | 235° |
| 2026-05-06 14:23 | 52.66984 | 5.93933 | 20107 ft | 331 kts | 235° |
| 2026-05-06 14:23 | 52.65651 | 5.90801 | 19669 ft | 331 kts | 236° |
| 2026-05-06 14:23 | 52.64323 | 5.87683 | 19240 ft | 335 kts | 236° |
| 2026-05-06 14:24 | 52.63004 | 5.84593 | 18795 ft | 323 kts | 236° |
| 2026-05-06 14:24 | 52.61698 | 5.81533 | 18352 ft | 326 kts | 236° |
| 2026-05-06 14:24 | 52.60701 | 5.78315 | 17745 ft | 302 kts | 251° |
| 2026-05-06 14:24 | 52.60110 | 5.75219 | 17376 ft | 273 kts | 253° |
| 2026-05-06 14:25 | 52.59545 | 5.72379 | 17065 ft | 251 kts | 250° |
| 2026-05-06 14:25 | 52.58906 | 5.69788 | 16821 ft | 240 kts | 248° |
| 2026-05-06 14:25 | 52.58252 | 5.67276 | 16562 ft | 237 kts | 249° |
| 2026-05-06 14:25 | 52.57624 | 5.64765 | 16311 ft | 235 kts | 250° |
| 2026-05-06 14:26 | 52.57020 | 5.62308 | 16058 ft | 233 kts | 249° |
| 2026-05-06 14:26 | 52.56408 | 5.59833 | 15803 ft | 233 kts | 249° |
| 2026-05-06 14:26 | 52.55794 | 5.57366 | 15555 ft | 232 kts | 250° |
| 2026-05-06 14:26 | 52.55191 | 5.54943 | 15311 ft | 233 kts | 249° |
| 2026-05-06 14:27 | 52.54575 | 5.52473 | 15056 ft | 232 kts | 249° |
| 2026-05-06 14:27 | 52.53963 | 5.50024 | 14800 ft | 231 kts | 250° |
| 2026-05-06 14:27 | 52.53356 | 5.47585 | 14554 ft | 230 kts | 249° |
| 2026-05-06 14:27 | 52.52757 | 5.45196 | 14310 ft | 227 kts | 249° |
| 2026-05-06 14:28 | 52.52159 | 5.42806 | 14058 ft | 224 kts | 250° |
| 2026-05-06 14:28 | 52.51567 | 5.40440 | 13845 ft | 220 kts | 249° |
| 2026-05-06 14:28 | 52.51011 | 5.38231 | 13625 ft | 206 kts | 250° |
| 2026-05-06 14:28 | 52.50458 | 5.36023 | 13381 ft | 211 kts | 249° |
| 2026-05-06 14:29 | 52.49897 | 5.33787 | 13142 ft | 211 kts | 249° |
| 2026-05-06 14:29 | 52.49336 | 5.31561 | 12913 ft | 209 kts | 249° |
| 2026-05-06 14:29 | 52.48785 | 5.29375 | 12676 ft | 207 kts | 249° |
| 2026-05-06 14:29 | 52.48239 | 5.27203 | 12466 ft | 210 kts | 249° |
| 2026-05-06 14:30 | 52.47682 | 5.25000 | 12232 ft | 205 kts | 250° |
| 2026-05-06 14:30 | 52.47132 | 5.22818 | 12015 ft | 209 kts | 249° |
| 2026-05-06 14:30 | 52.46576 | 5.20622 | 11793 ft | 206 kts | 250° |
| 2026-05-06 14:30 | 52.46020 | 5.18421 | 11575 ft | 211 kts | 250° |
| 2026-05-06 14:31 | 52.45462 | 5.16218 | 11347 ft | 207 kts | 249° |
| 2026-05-06 14:31 | 52.44911 | 5.14050 | 11129 ft | 208 kts | 250° |
| 2026-05-06 14:31 | 52.44354 | 5.11853 | 10904 ft | 208 kts | 249° |
| 2026-05-06 14:31 | 52.43795 | 5.09657 | 10708 ft | 207 kts | 249° |
| 2026-05-06 14:32 | 52.43242 | 5.07477 | 10487 ft | 207 kts | 250° |
| 2026-05-06 14:32 | 52.42692 | 5.05315 | 10271 ft | 207 kts | 249° |
| 2026-05-06 14:32 | 52.42133 | 5.03128 | 10054 ft | 208 kts | 250° |
| 2026-05-06 14:32 | 52.41575 | 5.00936 | 9840 ft | 208 kts | 250° |
| 2026-05-06 14:33 | 52.41019 | 4.98754 | 9613 ft | 207 kts | 248° |
| 2026-05-06 14:33 | 52.40461 | 4.96579 | 9390 ft | 207 kts | 249° |
| 2026-05-06 14:33 | 52.39911 | 4.94423 | 9171 ft | 206 kts | 249° |
| 2026-05-06 14:33 | 52.39358 | 4.92264 | 8961 ft | 206 kts | 249° |
| 2026-05-06 14:34 | 52.38802 | 4.90094 | 8750 ft | 204 kts | 249° |
| 2026-05-06 14:34 | 52.38253 | 4.87962 | 8536 ft | 198 kts | 250° |
| 2026-05-06 14:34 | 52.37746 | 4.85985 | 8338 ft | 184 kts | 249° |
| 2026-05-06 14:34 | 52.37251 | 4.84060 | 8156 ft | 187 kts | 250° |
| 2026-05-06 14:35 | 52.36753 | 4.82118 | 7963 ft | 180 kts | 250° |
| 2026-05-06 14:35 | 52.36246 | 4.80145 | 7790 ft | 190 kts | 250° |
| 2026-05-06 14:35 | 52.35828 | 4.78373 | 7603 ft | 181 kts | 258° |
| 2026-05-06 14:35 | 52.35353 | 4.76554 | 7435 ft | 173 kts | 246° |
| 2026-05-06 14:36 | 52.34852 | 4.74735 | 7242 ft | 173 kts | 248° |
| 2026-05-06 14:36 | 52.34380 | 4.72918 | 7067 ft | 175 kts | 248° |
| 2026-05-06 14:36 | 52.33919 | 4.71126 | 6891 ft | 174 kts | 249° |
| 2026-05-06 14:36 | 52.33459 | 4.69349 | 6715 ft | 168 kts | 248° |
| 2026-05-06 14:37 | 52.32995 | 4.67558 | 6511 ft | 169 kts | 248° |
| 2026-05-06 14:37 | 52.32538 | 4.65795 | 6351 ft | 176 kts | 249° |
| 2026-05-06 14:37 | 52.32073 | 4.64002 | 6161 ft | 170 kts | 249° |
| 2026-05-06 14:37 | 52.31601 | 4.62172 | 5984 ft | 171 kts | 248° |
| 2026-05-06 14:38 | 52.31058 | 4.60480 | 5640 ft | 168 kts | 231° |
| 2026-05-06 14:38 | 52.30198 | 4.59189 | 5265 ft | 174 kts | 217° |
| 2026-05-06 14:38 | 52.29270 | 4.57968 | 4888 ft | 169 kts | 218° |
| 2026-05-06 14:38 | 52.28383 | 4.56693 | 4510 ft | 167 kts | 221° |
| 2026-05-06 14:39 | 52.27517 | 4.55364 | 4294 ft | 175 kts | 222° |
| 2026-05-06 14:39 | 52.26679 | 4.54062 | 4119 ft | 171 kts | 222° |
| 2026-05-06 14:39 | 52.25795 | 4.52695 | 3930 ft | 172 kts | 222° |
| 2026-05-06 14:39 | 52.24933 | 4.51363 | 3759 ft | 167 kts | 223° |
| 2026-05-06 14:40 | 52.24067 | 4.50027 | 3595 ft | 169 kts | 222° |
| 2026-05-06 14:40 | 52.23142 | 4.48869 | 3436 ft | 163 kts | 202° |
| 2026-05-06 14:40 | 52.22031 | 4.48440 | 3272 ft | 168 kts | 175° |
| 2026-05-06 14:40 | 52.20936 | 4.48798 | 3124 ft | 160 kts | 149° |
| 2026-05-06 14:41 | 52.20089 | 4.49873 | 3014 ft | 150 kts | 122° |
| 2026-05-06 14:41 | 52.19676 | 4.51393 | 2913 ft | 148 kts | 94° |
| 2026-05-06 14:41 | 52.19761 | 4.53029 | 2804 ft | 142 kts | 68° |
| 2026-05-06 14:41 | 52.20295 | 4.54278 | 2677 ft | 134 kts | 40° |
| 2026-05-06 14:42 | 52.21120 | 4.55035 | 2541 ft | 136 kts | 31° |
| 2026-05-06 14:42 | 52.21881 | 4.55958 | 2376 ft | 138 kts | 45° |
| 2026-05-06 14:42 | 52.22462 | 4.57202 | 2197 ft | 137 kts | 56° |
| 2026-05-06 14:42 | 52.22965 | 4.58520 | 2013 ft | 137 kts | 55° |
| 2026-05-06 14:43 | 52.23471 | 4.59822 | 1884 ft | 131 kts | 55° |
| 2026-05-06 14:43 | 52.23985 | 4.61144 | 1644 ft | 132 kts | 56° |
| 2026-05-06 14:43 | 52.24470 | 4.62393 | 1469 ft | 139 kts | 55° |
| 2026-05-06 14:43 | 52.24974 | 4.63691 | 1296 ft | 134 kts | 55° |
| 2026-05-06 14:44 | 52.25481 | 4.64975 | 1109 ft | 136 kts | 55° |
| 2026-05-06 14:44 | 52.25976 | 4.66254 | 927 ft | 130 kts | 54° |
| 2026-05-06 14:44 | 52.26483 | 4.67549 | 849 ft | 138 kts | 54° |
| 2026-05-06 14:45 | 52.27517 | 4.70161 | 658 ft | 139 kts | 56° |
| 2026-05-06 14:45 | 52.28045 | 4.71496 | 370 ft | 136 kts | 56° |
| 2026-05-06 14:45 | 52.28555 | 4.72796 | 204 ft | 136 kts | 57° |
| 2026-05-06 14:45 | 52.29040 | 4.74059 | 2 ft | 103 kts | 58° |
| 2026-05-06 14:46 | 52.29332 | 4.74821 | -1 ft | 61 kts | 57° |
| 2026-05-06 14:46 | 52.29497 | 4.75251 | -3 ft | 30 kts | 57° |
| 2026-05-06 14:46 | 52.29611 | 4.75353 | 1 ft | 13 kts | 355° |
| 2026-05-06 14:46 | 52.29670 | 4.75312 | -1 ft | 8 kts | 329° |
| 2026-05-06 14:47 | 52.29693 | 4.75291 | -1 ft | 0 kts | 332° |
| 2026-05-06 14:48 | 52.29699 | 4.75287 | -1 ft | 3 kts | 339° |
| 2026-05-06 14:48 | 52.29741 | 4.75293 | -1 ft | 9 kts | 22° |
| 2026-05-06 14:48 | 52.29773 | 4.75369 | -1 ft | 10 kts | 69° |
| 2026-05-06 14:48 | 52.29806 | 4.75501 | -1 ft | 15 kts | 64° |
| 2026-05-06 14:49 | 52.29865 | 4.75660 | -1 ft | 19 kts | 56° |
| 2026-05-06 14:49 | 52.29924 | 4.75806 | -2 ft | 0 kts | 57° |
| 2026-05-06 14:50 | 52.29924 | 4.75807 | -2 ft | 0 kts | 57° |
| 2026-05-06 14:51 | 52.29952 | 4.75879 | -2 ft | 13 kts | 58° |
| 2026-05-06 14:51 | 52.30024 | 4.76064 | -2 ft | 26 kts | 60° |
| 2026-05-06 14:51 | 52.30125 | 4.76330 | -1 ft | 29 kts | 57° |
| 2026-05-06 14:51 | 52.30225 | 4.76592 | -1 ft | 24 kts | 58° |
| 2026-05-06 14:52 | 52.30301 | 4.76792 | 0 ft | 18 kts | 58° |
| 2026-05-06 14:52 | 52.30366 | 4.76957 | -1 ft | 20 kts | 57° |
| 2026-05-06 14:52 | 52.30451 | 4.77178 | -2 ft | 25 kts | 58° |
| 2026-05-06 14:52 | 52.30538 | 4.77413 | -1 ft | 20 kts | 58° |
| 2026-05-06 14:53 | 52.30633 | 4.77489 | -1 ft | 10 kts | 327° |
| 2026-05-06 14:53 | 52.30643 | 4.77401 | -1 ft | 8 kts | 261° |
| 2026-05-06 14:53 | 52.30636 | 4.77286 | -1 ft | 12 kts | 270° |
| 2026-05-06 14:53 | 52.30654 | 4.77208 | -1 ft | 4 kts | 334° |
| 2026-05-06 14:54 | 52.30673 | 4.77211 | 0 ft | 7 kts | 9° |
| 2026-05-06 14:54 | 52.30701 | 4.77214 | -1 ft | 0 kts | 3° |